Current Weather

King Khaled Intl

King Khaled Intl, Saudi Arabia (OERK)

Report from: Tuesday, August 16, 2022 9:00 AM +03
Current time: Tuesday, August 16, 2022 9:18 AM +03

Nearby weather
Weather history
Weather forecast

Temperature36.0°C (96.8°F)
Heat index33.7°C (92.6°F)
Dew point6.0°C (42.8°F)
Winds 12 kts (6.2 m/s, 13.8 mph) North-Northeast (20°)
Clouds Sky clear
Altimeter29.71 in.Hg (1006 mB)
Relative humidity16 %
Density altitude2,759 ft. (841 m)
Remarks Ceiling and visibility OK
No significant changes expected in the next two hours
Flight conditions Visual Meteorological Conditions
Raw dataOERK 160600Z 02012KT CAVOK 36/06 Q1006 NOSIG
An error has occurred. This application may no longer respond until reloaded. Reload 🗙